Time;durP1;ratioP1;P1;durP2;ratioP2;P2;SDS_P1;SDS_P2;PMS_P1;PMS_P2;Temp;Humidity;BMP_temperature;BMP_pressure;BME280_temperature;BME280_humidity;BME280_pressure;Samples;Min_cycle;Max_cycle;Signal;HPM_P1;HPM_P2
2021/11/13 00:00:50;;;;;;;5.13;4.05;;;21.20;53.40;;;;;;6197971;28;20045;-68
2021/11/13 00:03:50;;;;;;;4.82;3.67;;;21.20;53.50;;;;;;6191977;28;20467;-68
2021/11/13 00:06:51;;;;;;;4.63;3.78;;;21.20;53.50;;;;;;6192314;28;20073;-68
2021/11/13 00:09:52;;;;;;;5.05;3.80;;;21.20;53.50;;;;;;6231954;28;20025;-68
2021/11/13 00:12:53;;;;;;;5.53;4.05;;;21.20;53.40;;;;;;6213263;28;20439;-69
2021/11/13 00:15:55;;;;;;;4.90;3.88;;;21.20;53.50;;;;;;6193230;28;20388;-69
2021/11/13 00:18:55;;;;;;;4.93;3.83;;;21.20;53.50;;;;;;6207870;28;20484;-69
2021/11/13 00:21:56;;;;;;;5.20;4.25;;;21.20;53.50;;;;;;6217799;28;20084;-68
2021/11/13 00:24:57;;;;;;;5.13;4.18;;;21.20;53.50;;;;;;6216942;28;20030;-68
2021/11/13 00:27:58;;;;;;;4.97;4.28;;;21.20;53.50;;;;;;6216794;28;20033;-68
2021/11/13 00:30:58;;;;;;;6.28;4.68;;;21.20;53.50;;;;;;6188579;28;20422;-69
2021/11/13 00:33:59;;;;;;;6.32;4.72;;;21.20;53.50;;;;;;6192740;28;20050;-69
2021/11/13 00:36:59;;;;;;;5.88;4.07;;;21.20;53.50;;;;;;6199482;28;20523;-68
2021/11/13 00:40:00;;;;;;;5.68;4.30;;;21.20;53.40;;;;;;6216655;28;20026;-68
2021/11/13 00:43:02;;;;;;;5.18;4.03;;;21.20;53.40;;;;;;6216936;28;20033;-68
2021/11/13 00:46:02;;;;;;;6.15;4.72;;;21.20;53.40;;;;;;6216981;28;20033;-68
2021/11/13 00:49:05;;;;;;;7.20;4.30;;;21.20;53.40;;;;;;6216273;28;20479;-68
2021/11/13 00:52:06;;;;;;;6.78;4.72;;;21.20;53.40;;;;;;6216175;28;20018;-68
2021/11/13 00:55:08;;;;;;;5.30;4.32;;;21.20;53.40;;;;;;6216986;28;20053;-68
2021/11/13 00:58:09;;;;;;;5.90;4.47;;;21.20;53.40;;;;;;6231625;28;20331;-68
2021/11/13 01:01:09;;;;;;;6.07;4.53;;;21.20;53.40;;;;;;6231418;28;20033;-69
2021/11/13 01:04:10;;;;;;;5.43;4.40;;;21.20;53.40;;;;;;6216578;28;20030;-69
2021/11/13 01:07:11;;;;;;;5.50;4.45;;;21.20;53.40;;;;;;6216099;28;20030;-68
2021/11/13 01:10:15;;;;;;;6.88;4.65;;;21.20;53.40;;;;;;6215977;28;20026;-68
2021/11/13 01:13:15;;;;;;;6.22;4.45;;;21.20;53.40;;;;;;6208935;28;20046;-68
2021/11/13 01:16:17;;;;;;;5.70;4.32;;;21.20;53.30;;;;;;6192003;28;20034;-68
2021/11/13 01:19:18;;;;;;;7.40;4.63;;;21.20;54.00;;;;;;6223783;28;20037;-69
2021/11/13 01:22:18;;;;;;;5.80;3.90;;;21.20;53.40;;;;;;6200642;28;20069;-68
2021/11/13 01:25:19;;;;;;;5.50;3.95;;;21.20;53.40;;;;;;6216262;28;20026;-68
2021/11/13 01:28:19;;;;;;;7.13;4.82;;;21.20;53.40;;;;;;6216033;28;20487;-68
2021/11/13 01:31:20;;;;;;;5.90;4.10;;;21.20;53.40;;;;;;6187062;28;20234;-68
2021/11/13 01:34:20;;;;;;;5.75;4.10;;;21.20;53.40;;;;;;6216015;28;20033;-68
2021/11/13 01:37:22;;;;;;;5.95;4.38;;;21.20;53.40;;;;;;6215598;28;20026;-68
2021/11/13 01:40:25;;;;;;;6.53;4.43;;;21.20;53.40;;;;;;6214597;28;20124;-68
2021/11/13 01:43:26;;;;;;;5.03;4.03;;;21.20;53.40;;;;;;6215476;28;20049;-68
2021/11/13 01:46:27;;;;;;;6.22;4.50;;;21.20;53.40;;;;;;6231038;28;20030;-68
2021/11/13 01:49:27;;;;;;;5.45;4.50;;;21.20;53.40;;;;;;6215388;28;20018;-68
2021/11/13 01:52:28;;;;;;;5.35;4.35;;;21.20;53.40;;;;;;6221901;28;20101;-68
2021/11/13 01:55:34;;;;;;;6.38;4.68;;;21.20;53.40;;;;;;6191350;28;20041;-68
2021/11/13 01:58:34;;;;;;;4.85;4.10;;;21.20;53.30;;;;;;6208452;28;20022;-68
2021/11/13 02:01:36;;;;;;;4.97;4.13;;;21.20;53.40;;;;;;6215483;28;20506;-68
2021/11/13 02:04:37;;;;;;;5.55;4.35;;;21.20;53.40;;;;;;6191478;28;20554;-68
2021/11/13 02:07:38;;;;;;;4.68;3.75;;;21.20;53.40;;;;;;6197535;28;20022;-68
2021/11/13 02:10:38;;;;;;;4.88;4.00;;;21.20;53.30;;;;;;6215916;28;20108;-68
2021/11/13 02:13:39;;;;;;;5.60;4.40;;;21.20;53.30;;;;;;6220078;28;20105;-69
2021/11/13 02:16:40;;;;;;;5.10;4.00;;;21.20;53.40;;;;;;6191664;28;20417;-68
2021/11/13 02:19:40;;;;;;;5.03;4.13;;;21.20;53.40;;;;;;6212058;28;20302;-68
2021/11/13 02:22:41;;;;;;;5.05;3.88;;;21.20;53.40;;;;;;6216134;28;20483;-68
2021/11/13 02:25:42;;;;;;;5.85;4.22;;;21.20;53.40;;;;;;6205157;28;20081;-68
2021/11/13 02:28:43;;;;;;;5.13;3.92;;;21.20;53.40;;;;;;6200510;28;20026;-68
2021/11/13 02:31:44;;;;;;;5.68;4.30;;;21.20;53.40;;;;;;6187119;28;20018;-68
2021/11/13 02:34:45;;;;;;;5.80;4.47;;;21.20;53.40;;;;;;6218606;28;20076;-68
2021/11/13 02:37:46;;;;;;;5.55;4.22;;;21.20;53.40;;;;;;6218186;28;20018;-68
2021/11/13 02:40:50;;;;;;;6.22;4.55;;;21.20;53.30;;;;;;6218599;28;20050;-68
2021/11/13 02:43:50;;;;;;;6.13;4.38;;;21.20;53.40;;;;;;6219514;28;20124;-68
2021/11/13 02:46:51;;;;;;;5.05;3.88;;;21.20;53.40;;;;;;6219775;28;20080;-69
2021/11/13 02:49:53;;;;;;;6.38;4.40;;;21.20;53.40;;;;;;6219564;28;20026;-68
2021/11/13 02:52:57;;;;;;;5.80;4.40;;;21.20;53.40;;;;;;6211118;28;20427;-68
2021/11/13 02:56:01;;;;;;;6.32;4.65;;;21.20;53.40;;;;;;6219709;28;20022;-68
2021/11/13 02:59:01;;;;;;;5.25;4.15;;;21.20;53.30;;;;;;6200334;28;20015;-68
2021/11/13 03:02:02;;;;;;;4.65;4.13;;;21.20;53.40;;;;;;6198625;28;20033;-69
2021/11/13 03:05:03;;;;;;;5.15;4.05;;;21.20;53.40;;;;;;6217662;28;20057;-69
2021/11/13 03:08:05;;;;;;;5.25;4.00;;;21.20;53.40;;;;;;6234468;28;20402;-68
2021/11/13 03:11:09;;;;;;;5.93;4.10;;;21.10;53.30;;;;;;6218895;28;20033;-68
2021/11/13 03:14:09;;;;;;;5.85;4.68;;;21.10;53.30;;;;;;6203164;28;20053;-68
2021/11/13 03:17:12;;;;;;;4.93;4.13;;;21.10;53.40;;;;;;6198712;28;20026;-69
2021/11/13 03:20:17;;;;;;;4.85;4.00;;;21.10;53.40;;;;;;6192917;28;20053;-68
2021/11/13 03:23:18;;;;;;;5.65;4.30;;;21.10;53.40;;;;;;6202687;28;20488;-69
2021/11/13 03:26:21;;;;;;;5.85;4.25;;;21.10;53.30;;;;;;6214543;28;20030;-68
2021/11/13 03:29:29;;;;;;;5.45;4.28;;;21.10;53.30;;;;;;6194089;28;20113;-68
2021/11/13 03:32:30;;;;;;;4.43;3.90;;;21.10;53.30;;;;;;6193723;28;20022;-68
2021/11/13 03:35:31;;;;;;;5.15;4.22;;;21.20;53.40;;;;;;6194432;28;20081;-68
2021/11/13 03:38:33;;;;;;;6.10;4.90;;;21.10;53.30;;;;;;6213900;28;20014;-68
2021/11/13 03:41:34;;;;;;;5.78;4.63;;;21.10;53.20;;;;;;6218205;28;20076;-68
2021/11/13 03:44:35;;;;;;;4.97;4.10;;;21.10;53.20;;;;;;6217931;28;20546;-68
2021/11/13 03:47:36;;;;;;;6.03;4.53;;;21.10;53.20;;;;;;6218389;28;20030;-68
2021/11/13 03:50:37;;;;;;;5.63;4.50;;;21.10;53.30;;;;;;6233380;28;20021;-68
2021/11/13 03:53:37;;;;;;;4.85;4.07;;;21.10;54.00;;;;;;6217966;28;20030;-68
2021/11/13 03:56:38;;;;;;;5.28;4.50;;;21.10;53.30;;;;;;6217718;28;20030;-68
2021/11/13 04:03:35;;;;;;;4.88;4.03;;;21.10;53.30;;;;;;6201867;28;20030;-68
2021/11/13 04:06:36;;;;;;;6.55;4.55;;;21.10;53.40;;;;;;6193687;28;20034;-68
2021/11/13 04:09:36;;;;;;;5.22;4.30;;;21.10;53.30;;;;;;6214088;28;20076;-68
2021/11/13 04:12:38;;;;;;;6.28;4.68;;;21.10;53.30;;;;;;6212082;28;20511;-68
2021/11/13 04:15:39;;;;;;;8.27;4.55;;;21.10;53.20;;;;;;6193104;28;20030;-68
2021/11/13 04:18:39;;;;;;;5.53;4.18;;;21.10;53.30;;;;;;6204282;28;20096;-68
2021/11/13 04:21:40;;;;;;;6.25;4.40;;;21.10;53.30;;;;;;6217158;28;20029;-69
2021/11/13 04:24:40;;;;;;;5.88;4.30;;;21.10;53.30;;;;;;6196908;28;20181;-68
2021/11/13 04:27:42;;;;;;;5.65;4.50;;;21.10;53.30;;;;;;6192675;28;20088;-68
2021/11/13 04:30:42;;;;;;;5.78;4.47;;;21.10;53.30;;;;;;6180371;28;20027;-68
2021/11/13 04:33:43;;;;;;;4.90;4.00;;;21.10;53.50;;;;;;6213552;28;20036;-68
2021/11/13 04:36:46;;;;;;;5.47;4.47;;;21.10;53.20;;;;;;6194055;28;20153;-68
2021/11/13 04:39:48;;;;;;;5.50;4.60;;;21.10;53.30;;;;;;6193235;28;20049;-68
2021/11/13 04:42:48;;;;;;;5.63;4.15;;;21.10;53.20;;;;;;6205950;28;20463;-68
2021/11/13 04:45:49;;;;;;;5.82;4.30;;;21.10;53.20;;;;;;6216970;28;20037;-68
2021/11/13 04:48:49;;;;;;;4.82;3.97;;;21.20;53.30;;;;;;6216907;28;20078;-68
2021/11/13 04:51:50;;;;;;;5.78;4.40;;;21.10;53.30;;;;;;6211381;28;20027;-68
2021/11/13 04:54:50;;;;;;;5.40;4.20;;;21.10;53.30;;;;;;6192242;28;20026;-68
2021/11/13 04:57:51;;;;;;;4.38;3.63;;;21.10;53.30;;;;;;6203522;28;20026;-68
2021/11/13 05:00:52;;;;;;;6.60;4.47;;;21.10;53.90;;;;;;6216756;28;20022;-68
2021/11/13 05:03:52;;;;;;;4.65;4.00;;;21.10;53.30;;;;;;6216059;28;20399;-68
2021/11/13 05:06:53;;;;;;;6.53;4.57;;;21.10;53.30;;;;;;6216660;28;20037;-68
2021/11/13 05:09:54;;;;;;;5.60;4.07;;;21.10;53.30;;;;;;6216559;28;20472;-68
2021/11/13 05:12:55;;;;;;;5.22;4.10;;;21.10;53.30;;;;;;6227350;28;20073;-68
2021/11/13 05:15:56;;;;;;;5.68;3.92;;;21.10;53.30;;;;;;6192063;28;20026;-69
2021/11/13 05:18:57;;;;;;;5.30;4.15;;;21.10;53.30;;;;;;6191794;28;20050;-68
2021/11/13 05:21:58;;;;;;;6.10;4.30;;;21.10;53.30;;;;;;6192058;28;20057;-68
2021/11/13 05:24:59;;;;;;;5.35;4.07;;;21.10;53.30;;;;;;6213684;28;20475;-68
2021/11/13 05:27:59;;;;;;;6.30;4.20;;;21.10;53.40;;;;;;6216267;28;20033;-68
2021/11/13 05:31:00;;;;;;;6.07;4.15;;;21.10;53.30;;;;;;6187429;28;20130;-68
2021/11/13 05:34:01;;;;;;;4.97;4.30;;;21.10;53.30;;;;;;6199091;28;20076;-68
2021/11/13 05:37:02;;;;;;;4.50;4.00;;;21.10;53.30;;;;;;6216206;28;20533;-68
2021/11/13 05:40:05;;;;;;;5.47;3.80;;;21.10;53.30;;;;;;6214733;28;20025;-68
2021/11/13 05:43:06;;;;;;;4.40;3.88;;;21.10;53.90;;;;;;6199253;28;20042;-68
2021/11/13 05:46:06;;;;;;;4.53;3.88;;;21.10;53.30;;;;;;6191823;28;20022;-68
2021/11/13 05:49:07;;;;;;;5.20;4.07;;;21.10;53.30;;;;;;6215102;28;20153;-68
2021/11/13 05:52:07;;;;;;;5.78;4.32;;;21.10;53.20;;;;;;6208611;28;20231;-68
2021/11/13 05:55:10;;;;;;;4.05;3.42;;;21.10;53.20;;;;;;6191690;28;20378;-69
2021/11/13 05:58:11;;;;;;;4.85;4.18;;;21.10;53.20;;;;;;6205934;28;20033;-68
2021/11/13 06:01:13;;;;;;;5.38;3.90;;;21.10;53.30;;;;;;6210488;28;20619;-68
2021/11/13 06:04:13;;;;;;;5.05;4.18;;;21.10;53.20;;;;;;6191377;28;20543;-68
2021/11/13 06:07:14;;;;;;;5.28;3.90;;;21.10;53.20;;;;;;6196551;28;20104;-68
2021/11/13 06:10:16;;;;;;;5.05;3.92;;;21.10;53.30;;;;;;6219406;28;20021;-68
2021/11/13 06:13:17;;;;;;;4.70;3.80;;;21.10;53.20;;;;;;6210220;28;20038;-68
2021/11/13 06:16:18;;;;;;;5.28;3.95;;;21.10;53.30;;;;;;6196211;28;20066;-68
2021/11/13 06:19:18;;;;;;;4.82;3.78;;;21.10;53.30;;;;;;6212583;28;20038;-68
2021/11/13 06:22:19;;;;;;;5.00;3.97;;;21.10;53.20;;;;;;6220266;28;20072;-68
2021/11/13 06:25:20;;;;;;;4.47;3.60;;;21.10;53.30;;;;;;6235110;28;20026;-68
2021/11/13 06:28:20;;;;;;;4.43;3.78;;;21.10;53.30;;;;;;6199882;28;20476;-68
2021/11/13 06:31:21;;;;;;;4.65;3.83;;;21.10;53.30;;;;;;6196807;28;20030;-68
2021/11/13 06:34:22;;;;;;;5.10;3.65;;;21.10;53.30;;;;;;6234840;28;20030;-68
2021/11/13 06:37:23;;;;;;;5.00;3.88;;;21.10;53.30;;;;;;6208996;28;20026;-68
2021/11/13 06:40:24;;;;;;;4.28;3.67;;;21.10;53.30;;;;;;6194005;28;20073;-68
2021/11/13 06:43:24;;;;;;;4.85;3.63;;;21.10;53.30;;;;;;6213092;28;20033;-69
2021/11/13 06:46:26;;;;;;;4.00;3.40;;;21.10;53.20;;;;;;6218915;28;20442;-68
2021/11/13 06:49:26;;;;;;;4.63;3.60;;;21.10;53.30;;;;;;6212577;28;20021;-68
2021/11/13 06:52:27;;;;;;;5.05;3.80;;;21.10;53.20;;;;;;6219572;28;20427;-68
2021/11/13 06:55:28;;;;;;;4.90;3.90;;;21.10;53.20;;;;;;6219278;28;20026;-68
2021/11/13 06:58:28;;;;;;;5.18;4.20;;;21.10;53.10;;;;;;6203455;28;20029;-68
2021/11/13 07:01:29;;;;;;;5.25;3.75;;;21.10;53.20;;;;;;6195276;28;20380;-68
2021/11/13 07:04:30;;;;;;;4.63;3.60;;;21.10;53.90;;;;;;6218263;28;20109;-68
2021/11/13 07:07:33;;;;;;;4.45;3.25;;;21.10;53.20;;;;;;6212442;28;20033;-68
2021/11/13 07:10:35;;;;;;;4.28;3.50;;;21.10;53.10;;;;;;6219376;28;20535;-68
2021/11/13 07:13:35;;;;;;;4.35;3.75;;;21.10;53.20;;;;;;6207565;28;20043;-68
2021/11/13 07:16:36;;;;;;;4.68;3.58;;;21.10;53.20;;;;;;6193325;28;20041;-68
2021/11/13 07:19:36;;;;;;;4.22;3.47;;;21.10;53.20;;;;;;6215894;28;20022;-68
2021/11/13 07:22:39;;;;;;;4.22;3.55;;;21.10;53.20;;;;;;6218917;28;20373;-68
2021/11/13 07:25:40;;;;;;;4.25;3.50;;;21.10;53.10;;;;;;6225105;28;20041;-68
2021/11/13 07:28:47;;;;;;;4.75;3.78;;;21.10;53.20;;;;;;6194102;28;20030;-68
2021/11/13 07:31:47;;;;;;;4.32;3.45;;;21.10;53.20;;;;;;6208549;28;20037;-68
2021/11/13 07:34:48;;;;;;;4.88;3.50;;;21.10;53.20;;;;;;6218076;28;20356;-68
2021/11/13 07:37:49;;;;;;;4.47;3.47;;;21.10;53.20;;;;;;6217997;28;20122;-68
2021/11/13 07:40:50;;;;;;;4.03;3.45;;;21.10;53.20;;;;;;6218327;28;20021;-68
2021/11/13 07:43:51;;;;;;;4.40;3.47;;;21.10;53.20;;;;;;6196877;28;20121;-68
2021/11/13 07:46:51;;;;;;;4.50;3.33;;;21.10;53.20;;;;;;6199018;28;20026;-68
2021/11/13 07:49:52;;;;;;;4.13;3.17;;;21.10;53.10;;;;;;6218327;28;20495;-68
2021/11/13 07:52:53;;;;;;;3.90;3.03;;;21.10;53.90;;;;;;6205856;28;20070;-68
2021/11/13 07:55:53;;;;;;;5.75;4.03;;;21.10;53.20;;;;;;6194004;28;20026;-68
2021/11/13 07:58:54;;;;;;;4.28;3.17;;;21.10;53.20;;;;;;6193425;28;20468;-68
2021/11/13 08:01:54;;;;;;;4.28;3.45;;;21.10;53.20;;;;;;6195907;28;20040;-68
2021/11/13 08:04:55;;;;;;;5.05;3.55;;;21.10;53.20;;;;;;6217793;28;20092;-68
2021/11/13 08:07:55;;;;;;;4.53;3.55;;;21.10;53.10;;;;;;6217753;28;20096;-68
2021/11/13 08:10:58;;;;;;;4.18;3.38;;;21.10;53.20;;;;;;6218224;28;20334;-68
2021/11/13 08:13:58;;;;;;;4.38;3.10;;;21.10;53.20;;;;;;6201300;28;20043;-68
2021/11/13 08:16:59;;;;;;;4.15;3.13;;;21.10;53.20;;;;;;6193232;28;20077;-68
2021/11/13 08:19:59;;;;;;;5.07;3.58;;;21.10;53.20;;;;;;6216768;28;20033;-69
2021/11/13 08:23:00;;;;;;;4.57;3.33;;;21.10;53.20;;;;;;6232446;28;20057;-68
2021/11/13 08:26:01;;;;;;;4.22;3.55;;;21.10;53.20;;;;;;6207365;28;20323;-69
2021/11/13 08:29:03;;;;;;;4.15;2.90;;;21.10;53.10;;;;;;6217450;28;20018;-68
2021/11/13 08:32:06;;;;;;;4.05;3.40;;;21.10;53.20;;;;;;6187315;28;20109;-68
2021/11/13 08:35:08;;;;;;;3.97;3.20;;;21.10;53.10;;;;;;6217540;28;20523;-68
2021/11/13 08:38:13;;;;;;;4.80;3.60;;;21.10;53.20;;;;;;6217443;28;20246;-68
2021/11/13 08:41:15;;;;;;;3.97;3.17;;;21.10;53.10;;;;;;6217295;28;20018;-68
2021/11/13 08:44:16;;;;;;;3.63;3.20;;;21.10;53.10;;;;;;6217123;28;20021;-68
2021/11/13 08:47:16;;;;;;;4.32;3.30;;;21.10;53.10;;;;;;6232489;28;20436;-68
2021/11/13 08:50:23;;;;;;;4.25;3.30;;;21.10;53.10;;;;;;6216290;28;20041;-68
2021/11/13 08:53:24;;;;;;;3.78;3.03;;;21.10;53.20;;;;;;6215548;28;20065;-68
2021/11/13 08:56:28;;;;;;;3.63;3.10;;;21.10;53.10;;;;;;6215670;28;20029;-68
2021/11/13 08:59:30;;;;;;;3.70;2.95;;;21.10;53.20;;;;;;6168515;28;20037;-68
2021/11/13 09:02:32;;;;;;;3.83;2.92;;;21.10;53.20;;;;;;6175364;28;20365;-68
2021/11/13 09:05:33;;;;;;;4.60;3.42;;;21.10;53.10;;;;;;6192781;28;20080;-68
2021/11/13 09:08:33;;;;;;;3.78;3.38;;;21.10;53.20;;;;;;6192899;28;20062;-68
2021/11/13 09:11:38;;;;;;;4.18;3.25;;;21.10;53.10;;;;;;6193476;28;20438;-68
2021/11/13 09:14:40;;;;;;;4.28;3.20;;;21.10;53.10;;;;;;6193335;28;20488;-68
2021/11/13 09:17:41;;;;;;;3.88;2.83;;;21.10;53.10;;;;;;6217456;28;20032;-68
2021/11/13 09:20:42;;;;;;;3.85;3.17;;;21.10;53.10;;;;;;6215362;28;20022;-68
2021/11/13 09:23:42;;;;;;;3.53;2.92;;;21.10;53.10;;;;;;6214956;28;20060;-68
2021/11/13 09:26:43;;;;;;;4.47;3.45;;;21.10;53.10;;;;;;6216243;28;20307;-68
2021/11/13 09:29:43;;;;;;;4.22;3.15;;;21.10;53.10;;;;;;6212170;28;20030;-68
2021/11/13 09:32:46;;;;;;;4.13;3.25;;;21.10;53.20;;;;;;6206441;28;20030;-69
2021/11/13 09:35:47;;;;;;;4.22;3.00;;;21.10;53.10;;;;;;6215417;28;20030;-68
2021/11/13 09:38:48;;;;;;;3.97;3.10;;;21.10;53.20;;;;;;6215072;28;20010;-68
2021/11/13 09:41:49;;;;;;;3.90;3.10;;;21.10;53.10;;;;;;6217538;28;20041;-68
2021/11/13 09:44:51;;;;;;;3.53;2.97;;;21.10;53.10;;;;;;6221765;28;20021;-68
2021/11/13 09:47:53;;;;;;;3.92;2.92;;;21.10;53.20;;;;;;6219983;28;20026;-68
2021/11/13 09:50:54;;;;;;;3.65;2.92;;;21.10;53.10;;;;;;6221349;28;20399;-68
2021/11/13 09:53:56;;;;;;;3.05;2.70;;;21.10;53.20;;;;;;6219574;28;20141;-68
2021/11/13 09:56:57;;;;;;;3.97;3.28;;;21.10;53.20;;;;;;6219586;28;20022;-68
2021/11/13 09:59:57;;;;;;;3.40;2.88;;;21.10;53.30;;;;;;6221015;28;20534;-68
2021/11/13 10:02:59;;;;;;;3.20;2.63;;;21.10;53.20;;;;;;6220450;28;20053;-68
2021/11/13 10:06:02;;;;;;;4.10;2.97;;;21.10;53.20;;;;;;6219497;28;20032;-68
2021/11/13 10:09:03;;;;;;;3.78;3.00;;;21.10;53.10;;;;;;6220503;28;20030;-68
2021/11/13 10:12:04;;;;;;;3.58;2.97;;;21.10;53.10;;;;;;6218788;28;20045;-68
2021/11/13 10:15:43;;;;;;;3.22;2.58;;;21.10;53.10;;;;;;6196193;28;20392;-68
2021/11/13 10:18:53;;;;;;;3.13;2.80;;;21.10;53.10;;;;;;6189337;28;20155;-68
2021/11/13 10:21:57;;;;;;;3.83;2.90;;;21.10;53.10;;;;;;6217671;28;20018;-68
2021/11/13 10:24:57;;;;;;;3.55;2.80;;;21.10;53.00;;;;;;6201536;28;20399;-68
2021/11/13 10:28:13;;;;;;;3.25;2.78;;;21.10;53.00;;;;;;6235382;28;20040;-68
2021/11/13 10:31:29;;;;;;;4.13;3.05;;;21.10;53.00;;;;;;6191556;28;20495;-68
2021/11/13 10:34:38;;;;;;;4.10;3.00;;;21.10;53.10;;;;;;6219805;28;20561;-68
2021/11/13 10:37:48;;;;;;;3.30;2.42;;;21.10;53.10;;;;;;6207232;28;20056;-68
2021/11/13 10:40:55;;;;;;;3.47;2.80;;;21.10;53.10;;;;;;6197883;28;20248;-68
2021/11/13 10:43:57;;;;;;;2.60;2.33;;;21.10;53.10;;;;;;6217667;28;20041;-68
2021/11/13 10:47:07;;;;;;;3.20;2.90;;;21.10;53.10;;;;;;6220294;28;20033;-68
2021/11/13 10:50:25;;;;;;;3.85;3.03;;;21.10;53.10;;;;;;6219637;28;20045;-68
2021/11/13 10:53:26;;;;;;;4.18;2.38;;;21.10;53.10;;;;;;6209480;28;20519;-68
2021/11/13 10:56:27;;;;;;;4.55;2.50;;;21.10;53.10;;;;;;6195462;28;20053;-68
2021/11/13 10:59:31;;;;;;;3.45;2.72;;;21.10;53.10;;;;;;6219947;28;20526;-68
2021/11/13 11:02:32;;;;;;;3.67;2.72;;;21.10;53.00;;;;;;6219578;28;20645;-69
2021/11/13 11:05:49;;;;;;;3.30;2.80;;;21.10;53.00;;;;;;6234457;28;20034;-68
2021/11/13 11:08:49;;;;;;;4.18;2.90;;;21.10;53.00;;;;;;6218305;28;20375;-68
2021/11/13 11:11:53;;;;;;;3.72;2.80;;;21.10;53.00;;;;;;6219490;28;20050;-68
2021/11/13 11:14:54;;;;;;;3.30;2.40;;;21.10;53.10;;;;;;6197137;28;20081;-69
2021/11/13 11:17:58;;;;;;;2.78;2.30;;;21.10;53.00;;;;;;6194740;28;20030;-68
2021/11/13 11:20:58;;;;;;;3.38;2.60;;;21.10;53.10;;;;;;6193713;28;20088;-68
2021/11/13 11:24:31;;;;;;;3.75;2.88;;;21.10;53.00;;;;;;6209007;28;20037;-68
2021/11/13 11:27:43;;;;;;;2.85;2.40;;;21.10;53.00;;;;;;6220130;28;20076;-68
2021/11/13 11:30:49;;;;;;;3.95;3.00;;;21.10;53.00;;;;;;6198235;28;20587;-68
2021/11/13 11:33:50;;;;;;;3.40;2.60;;;21.10;53.00;;;;;;6217082;28;20510;-68
2021/11/13 11:36:52;;;;;;;3.10;2.67;;;21.10;52.90;;;;;;6217129;28;20026;-68
2021/11/13 11:40:00;;;;;;;3.78;2.88;;;21.10;53.00;;;;;;6217134;28;20026;-68
2021/11/13 11:43:01;;;;;;;2.83;2.45;;;21.10;53.00;;;;;;6203744;28;20018;-69
2021/11/13 11:46:01;;;;;;;3.75;2.90;;;21.10;53.00;;;;;;6194184;28;20027;-68
2021/11/13 11:49:04;;;;;;;2.60;2.30;;;21.10;53.00;;;;;;6232288;28;20034;-68
2021/11/13 11:52:04;;;;;;;2.33;2.10;;;21.10;53.00;;;;;;6234157;28;20092;-68
2021/11/13 11:55:06;;;;;;;4.00;2.50;;;21.20;53.10;;;;;;6216812;28;20537;-68
2021/11/13 11:58:11;;;;;;;3.70;2.83;;;21.10;53.00;;;;;;6218334;28;20518;-69
2021/11/13 12:01:30;;;;;;;2.70;2.20;;;21.10;53.00;;;;;;6219661;28;20030;-67
2021/11/13 12:04:31;;;;;;;2.42;2.22;;;21.10;53.00;;;;;;6194054;28;20034;-70
2021/11/13 12:07:32;;;;;;;3.28;2.28;;;21.10;53.00;;;;;;6193583;28;20031;-70
2021/11/13 12:10:32;;;;;;;4.43;2.40;;;21.10;53.00;;;;;;6193804;28;20431;-69
2021/11/13 12:13:33;;;;;;;3.17;2.42;;;21.10;53.10;;;;;;6196033;28;20096;-70
2021/11/13 12:16:35;;;;;;;2.83;2.25;;;21.10;53.10;;;;;;6193713;28;20027;-71
2021/11/13 12:19:36;;;;;;;2.65;2.30;;;21.10;53.10;;;;;;6211952;28;20026;-70
2021/11/13 12:22:47;;;;;;;3.10;2.30;;;21.10;53.10;;;;;;6218014;28;20092;-69
2021/11/13 12:26:10;;;;;;;3.17;2.28;;;21.10;53.00;;;;;;6216172;28;20045;-70
2021/11/13 12:29:13;;;;;;;2.63;2.10;;;21.20;53.10;;;;;;6218584;28;20453;-70
2021/11/13 12:32:15;;;;;;;3.17;2.65;;;21.10;53.10;;;;;;6192005;28;20403;-70
2021/11/13 12:35:17;;;;;;;3.10;2.40;;;21.10;53.00;;;;;;6220141;28;20345;-70
2021/11/13 12:38:34;;;;;;;2.75;2.38;;;21.10;53.00;;;;;;6199835;28;20112;-70
2021/11/13 12:41:35;;;;;;;2.65;2.22;;;21.20;53.00;;;;;;6196199;28;20392;-70
2021/11/13 12:44:40;;;;;;;2.97;2.40;;;21.10;52.90;;;;;;6217651;28;20105;-70
2021/11/13 12:47:40;;;;;;;2.28;1.73;;;21.20;53.00;;;;;;6205905;28;20022;-70
2021/11/13 12:50:46;;;;;;;3.00;2.22;;;21.20;52.90;;;;;;6192645;28;20531;-70
2021/11/13 12:53:54;;;;;;;2.40;2.03;;;21.20;53.00;;;;;;6212969;28;20083;-70
2021/11/13 12:57:01;;;;;;;2.83;2.30;;;21.20;52.90;;;;;;6217519;28;20230;-70
2021/11/13 13:00:21;;;;;;;3.00;2.58;;;21.20;53.00;;;;;;6216545;28;20026;-71
2021/11/13 13:03:27;;;;;;;3.05;2.50;;;21.20;53.00;;;;;;6215674;28;20112;-70
2021/11/13 13:06:28;;;;;;;2.60;2.05;;;21.20;53.00;;;;;;6214989;28;20026;-70
2021/11/13 13:09:29;;;;;;;2.97;2.25;;;21.20;53.00;;;;;;6216885;28;20029;-70
2021/11/13 13:12:35;;;;;;;2.85;2.30;;;21.20;52.90;;;;;;6215893;28;20045;-70
2021/11/13 13:15:39;;;;;;;2.88;2.55;;;21.10;52.90;;;;;;6192223;28;20045;-70
2021/11/13 13:18:40;;;;;;;3.17;2.20;;;21.20;53.00;;;;;;6208876;28;20125;-70
2021/11/13 13:21:47;;;;;;;2.85;2.25;;;21.20;53.00;;;;;;6217574;28;20022;-70
2021/11/13 13:24:52;;;;;;;2.88;2.33;;;21.20;53.00;;;;;;6217558;28;20082;-70
2021/11/13 13:27:58;;;;;;;2.92;2.33;;;21.10;52.90;;;;;;6216833;28;20025;-70
2021/11/13 13:31:08;;;;;;;2.50;2.00;;;21.20;53.00;;;;;;6202122;28;20037;-71
2021/11/13 13:34:09;;;;;;;2.70;2.30;;;21.20;53.00;;;;;;6190155;28;20392;-70
2021/11/13 13:37:17;;;;;;;2.05;1.85;;;21.10;52.90;;;;;;6201089;28;20096;-70
2021/11/13 13:40:21;;;;;;;2.40;2.00;;;21.20;53.10;;;;;;6231583;28;20234;-70
2021/11/13 13:43:27;;;;;;;2.80;2.28;;;21.10;52.90;;;;;;6216301;28;20018;-71
2021/11/13 13:46:33;;;;;;;2.20;1.77;;;21.20;53.10;;;;;;6214710;28;20018;-70
2021/11/13 13:49:34;;;;;;;2.75;2.03;;;21.20;53.10;;;;;;6216417;28;20053;-70
2021/11/13 13:52:37;;;;;;;3.20;2.30;;;21.20;53.10;;;;;;6206982;28;20018;-69
2021/11/13 13:55:40;;;;;;;2.03;1.63;;;21.20;53.10;;;;;;6191877;28;20462;-70
2021/11/13 13:58:40;;;;;;;2.75;2.28;;;21.10;53.00;;;;;;6209758;28;20431;-70
2021/11/13 14:01:49;;;;;;;2.55;2.00;;;21.20;53.10;;;;;;6215777;28;20022;-70
2021/11/13 14:04:53;;;;;;;2.65;2.20;;;21.10;53.00;;;;;;6216522;28;20033;-72
2021/11/13 14:08:04;;;;;;;2.58;1.92;;;21.20;53.10;;;;;;6216022;28;20286;-70
2021/11/13 14:11:05;;;;;;;2.03;1.55;;;21.20;53.10;;;;;;6215034;28;20334;-70
2021/11/13 14:14:05;;;;;;;2.85;1.90;;;21.20;53.10;;;;;;6198485;28;20347;-70
2021/11/13 14:17:19;;;;;;;2.60;2.30;;;21.20;53.10;;;;;;6191991;28;20251;-70
2021/11/13 14:20:22;;;;;;;2.13;1.70;;;21.20;53.10;;;;;;6216107;28;20499;-70
2021/11/13 14:23:30;;;;;;;2.72;2.00;;;21.10;53.10;;;;;;6215972;28;20074;-71
2021/11/13 14:26:31;;;;;;;2.45;1.90;;;21.20;53.20;;;;;;6210482;28;20033;-70
2021/11/13 14:29:33;;;;;;;2.20;1.95;;;21.20;53.10;;;;;;6194441;28;20076;-70
2021/11/13 14:32:34;;;;;;;2.38;2.00;;;21.10;53.00;;;;;;6208707;28;20022;-70
2021/11/13 14:35:36;;;;;;;2.30;1.95;;;21.20;53.10;;;;;;6220389;28;20084;-70
2021/11/13 14:38:37;;;;;;;2.53;1.95;;;21.20;53.10;;;;;;6199211;28;20097;-70
2021/11/13 14:41:39;;;;;;;2.10;1.70;;;21.20;53.10;;;;;;6198122;28;20022;-70
2021/11/13 14:44:50;;;;;;;2.35;1.73;;;21.20;53.10;;;;;;6219050;28;20025;-70
2021/11/13 14:47:51;;;;;;;1.92;1.63;;;21.20;53.10;;;;;;6220237;28;20026;-70
2021/11/13 14:50:52;;;;;;;2.28;1.90;;;21.20;53.10;;;;;;6219229;28;20034;-70
2021/11/13 14:53:53;;;;;;;2.50;1.83;;;21.20;53.10;;;;;;6220309;28;20107;-71
2021/11/13 14:57:10;;;;;;;2.08;1.70;;;21.20;53.10;;;;;;6231859;28;20028;-70
2021/11/13 15:00:32;;;;;;;1.67;1.58;;;21.10;53.00;;;;;;6195931;28;20075;-70
2021/11/13 15:03:36;;;;;;;2.25;1.83;;;21.10;53.00;;;;;;6211663;28;20236;-70
2021/11/13 15:06:37;;;;;;;2.33;1.92;;;21.10;53.00;;;;;;6220406;28;20591;-70
2021/11/13 15:09:46;;;;;;;2.72;1.98;;;21.10;53.00;;;;;;6199343;28;20026;-70
2021/11/13 15:12:46;;;;;;;2.17;1.80;;;21.10;53.00;;;;;;6212079;28;20078;-70
2021/11/13 15:15:49;;;;;;;2.90;1.92;;;21.20;53.20;;;;;;6195209;28;20104;-70
2021/11/13 15:18:53;;;;;;;1.95;1.67;;;21.20;53.20;;;;;;6207595;28;20196;-70
2021/11/13 15:21:54;;;;;;;2.22;2.03;;;21.20;53.10;;;;;;6219481;28;20018;-70
2021/11/13 15:24:55;;;;;;;2.28;1.90;;;21.10;53.10;;;;;;6223886;28;20561;-71
2021/11/13 15:28:00;;;;;;;2.00;1.80;;;21.20;53.10;;;;;;6200767;28;20027;-70
2021/11/13 15:31:05;;;;;;;1.70;1.50;;;21.20;53.20;;;;;;6180878;28;20030;-70
2021/11/13 15:34:07;;;;;;;2.00;1.80;;;21.10;53.10;;;;;;6219043;28;20026;-71
2021/11/13 15:37:14;;;;;;;2.58;2.05;;;21.10;53.00;;;;;;6219059;28;20080;-70
2021/11/13 15:40:26;;;;;;;1.80;1.63;;;21.20;53.10;;;;;;6216895;28;20034;-70
2021/11/13 15:43:29;;;;;;;1.70;1.40;;;21.10;53.00;;;;;;6199059;28;20015;-71
2021/11/13 15:46:33;;;;;;;2.13;1.73;;;21.20;53.10;;;;;;6195061;28;20031;-70
2021/11/13 15:49:35;;;;;;;1.98;1.70;;;21.10;53.10;;;;;;6218637;28;20266;-69
2021/11/13 15:52:42;;;;;;;1.92;1.65;;;21.20;53.20;;;;;;6208245;28;20439;-70
2021/11/13 15:55:42;;;;;;;2.22;1.85;;;21.20;53.90;;;;;;6194094;28;20030;-70